createdAt,value
2018-09-21T00:00:53.140Z,14.43
2018-09-21T00:03:21.911Z,11.60
2018-09-21T00:05:50.593Z,10.05
2018-09-21T00:08:20.090Z,8.80
2018-09-21T00:10:49.091Z,7.63
2018-09-21T00:13:18.047Z,7.22
2018-09-21T00:15:46.497Z,7.47
2018-09-21T00:18:15.451Z,7.08
2018-09-21T00:20:45.093Z,6.58
2018-09-21T00:23:13.989Z,6.30
2018-09-21T00:25:42.615Z,6.65
2018-09-21T00:28:11.765Z,6.33
2018-09-21T00:30:40.519Z,6.62
2018-09-21T00:33:09.032Z,6.30
2018-09-21T00:35:37.853Z,6.37
2018-09-21T00:38:06.895Z,6.50
2018-09-21T00:40:35.809Z,6.47
2018-09-21T00:43:09.956Z,6.20
2018-09-21T00:45:39.257Z,6.60
2018-09-21T00:48:08.382Z,6.00
2018-09-21T00:50:37.371Z,6.30
2018-09-21T00:53:06.487Z,6.47
2018-09-21T00:55:35.023Z,6.35
2018-09-21T00:58:04.005Z,6.15
2018-09-21T01:00:32.937Z,6.22
2018-09-21T01:03:01.529Z,6.73
2018-09-21T01:05:30.313Z,6.78
2018-09-21T01:07:59.432Z,6.42
2018-09-21T01:10:28.091Z,6.70
2018-09-21T01:12:57.143Z,6.50
2018-09-21T01:15:27.209Z,6.65
2018-09-21T01:17:56.038Z,6.50
2018-09-21T01:20:25.711Z,6.30
2018-09-21T01:22:55.343Z,6.87
2018-09-21T01:25:24.379Z,6.75
2018-09-21T01:27:53.255Z,6.13
2018-09-21T01:30:21.974Z,6.42
2018-09-21T01:32:51.103Z,6.83
2018-09-21T01:35:20.023Z,6.50
2018-09-21T01:37:49.166Z,6.33
2018-09-21T01:40:18.011Z,6.40
2018-09-21T01:42:46.992Z,6.62
2018-09-21T01:45:16.197Z,6.37
2018-09-21T01:47:44.911Z,6.10
2018-09-21T01:50:13.968Z,6.42
2018-09-21T01:52:43.034Z,6.50
2018-09-21T01:55:11.974Z,6.30
2018-09-21T01:57:40.811Z,6.70
2018-09-21T02:00:09.838Z,6.80
2018-09-21T02:02:38.928Z,6.45
2018-09-21T02:05:07.776Z,6.45
2018-09-21T02:07:36.922Z,6.80
2018-09-21T02:10:05.717Z,6.43
2018-09-21T02:12:34.831Z,6.62
2018-09-21T02:15:03.531Z,6.40
2018-09-21T02:17:32.530Z,6.55
2018-09-21T02:20:01.384Z,6.77
2018-09-21T02:22:30.290Z,6.70
2018-09-21T02:24:59.046Z,6.85
2018-09-21T02:27:27.767Z,6.72
2018-09-21T02:29:56.605Z,5.97
2018-09-21T02:32:25.011Z,6.30
2018-09-21T02:34:53.822Z,6.12
2018-09-21T02:37:22.429Z,6.15
2018-09-21T02:39:51.222Z,5.80
2018-09-21T02:42:20.027Z,6.20
2018-09-21T02:44:48.486Z,5.60
2018-09-21T02:47:17.847Z,5.67
2018-09-21T02:49:46.579Z,5.58
2018-09-21T02:52:15.736Z,5.60
2018-09-21T02:54:45.606Z,6.45
2018-09-21T02:57:14.377Z,5.65
2018-09-21T02:59:43.230Z,5.58
2018-09-21T03:02:11.600Z,5.65
2018-09-21T03:04:45.247Z,5.45
2018-09-21T03:07:14.215Z,6.03
2018-09-21T03:09:42.862Z,5.85
2018-09-21T03:12:11.381Z,5.50
2018-09-21T03:14:40.045Z,5.92
2018-09-21T03:17:08.628Z,5.65
2018-09-21T03:19:37.099Z,5.87
2018-09-21T03:22:05.818Z,5.62
2018-09-21T03:24:39.303Z,5.62
2018-09-21T03:27:08.358Z,5.65
2018-09-21T03:29:36.915Z,5.62
2018-09-21T03:32:05.453Z,5.70
2018-09-21T03:34:33.959Z,5.75
2018-09-21T03:37:04.686Z,5.22
2018-09-21T03:39:33.697Z,5.42
2018-09-21T03:42:02.864Z,5.85
2018-09-21T03:44:31.707Z,5.75
2018-09-21T03:47:01.213Z,5.55
2018-09-21T03:49:30.459Z,5.97
2018-09-21T03:51:59.385Z,5.35
2018-09-21T03:54:28.443Z,5.42
2018-09-21T03:56:57.457Z,5.40
2018-09-21T03:59:26.415Z,5.75
2018-09-21T04:01:54.931Z,5.90
2018-09-21T04:04:23.680Z,5.37
2018-09-21T04:06:52.120Z,5.70
2018-09-21T04:09:20.644Z,5.78
2018-09-21T04:11:49.268Z,5.87
2018-09-21T04:14:18.182Z,5.80
2018-09-21T04:16:47.047Z,5.60
2018-09-21T04:19:15.596Z,5.58
2018-09-21T04:21:44.714Z,5.58
2018-09-21T04:24:13.651Z,5.80
2018-09-21T04:26:42.299Z,5.53
2018-09-21T04:29:11.685Z,6.12
2018-09-21T04:31:40.520Z,5.90
2018-09-21T04:34:09.076Z,5.22
2018-09-21T04:36:37.527Z,5.65
2018-09-21T04:39:08.966Z,5.65
2018-09-21T04:41:38.152Z,5.83
2018-09-21T04:44:07.059Z,5.50
2018-09-21T04:46:35.546Z,5.67
2018-09-21T04:49:04.199Z,5.85
2018-09-21T04:51:32.896Z,5.80
2018-09-21T04:54:01.518Z,5.60
2018-09-21T04:56:30.087Z,5.42
2018-09-21T04:58:59.292Z,6.05
2018-09-21T05:01:28.146Z,5.80
2018-09-21T05:03:56.815Z,5.67
2018-09-21T05:06:25.464Z,5.87
2018-09-21T05:08:54.462Z,6.08
2018-09-21T05:11:23.119Z,5.70
2018-09-21T05:13:52.463Z,6.17
2018-09-21T05:16:21.000Z,6.50
2018-09-21T05:18:49.547Z,5.92
2018-09-21T05:21:18.242Z,6.22
2018-09-21T05:23:46.968Z,6.03
2018-09-21T05:26:15.964Z,6.00
2018-09-21T05:28:44.738Z,6.20
2018-09-21T05:31:13.330Z,6.22
2018-09-21T05:33:41.970Z,6.12
2018-09-21T05:36:11.696Z,6.20
2018-09-21T05:38:40.845Z,6.30
2018-09-21T05:41:09.466Z,6.15
2018-09-21T05:43:38.099Z,5.95
2018-09-21T05:46:06.964Z,6.33
2018-09-21T05:48:35.611Z,6.05
2018-09-21T05:51:04.454Z,6.40
2018-09-21T05:53:33.594Z,6.40
2018-09-21T05:56:02.096Z,6.27
2018-09-21T05:58:30.891Z,6.03
2018-09-21T06:00:59.802Z,6.30
2018-09-21T06:03:28.363Z,6.30
2018-09-21T06:05:57.109Z,6.00
2018-09-21T06:08:40.511Z,6.37
2018-09-21T06:11:09.070Z,6.10
2018-09-21T06:13:39.040Z,5.72
2018-09-21T06:16:08.003Z,5.80
2018-09-21T06:18:36.594Z,5.85
2018-09-21T06:21:06.749Z,6.58
2018-09-21T06:23:35.387Z,6.05
2018-09-21T06:26:04.018Z,5.80
2018-09-21T06:28:32.938Z,6.03
2018-09-21T06:31:01.732Z,5.95
2018-09-21T06:33:30.608Z,5.78
2018-09-21T06:35:59.097Z,6.07
2018-09-21T06:38:28.093Z,6.00
2018-09-21T06:40:57.047Z,5.47
2018-09-21T06:43:25.846Z,5.80
2018-09-21T06:45:54.400Z,5.57
2018-09-21T06:48:23.908Z,5.90
2018-09-21T06:50:52.852Z,5.62
2018-09-21T06:53:21.444Z,5.70
2018-09-21T06:55:50.390Z,5.40
2018-09-21T06:58:21.262Z,5.62
2018-09-21T07:00:50.306Z,5.60
2018-09-21T07:03:19.102Z,5.70
2018-09-21T07:05:48.144Z,5.60
2018-09-21T07:08:16.726Z,5.75
2018-09-21T07:10:45.412Z,5.85
2018-09-21T07:13:14.018Z,5.42
2018-09-21T07:15:42.844Z,5.67
2018-09-21T07:18:11.965Z,5.80
2018-09-21T07:20:41.006Z,6.00
2018-09-21T07:23:12.291Z,5.80
2018-09-21T07:25:41.388Z,5.17
2018-09-21T07:28:10.480Z,5.42
2018-09-21T07:30:39.330Z,5.60
2018-09-21T07:33:08.141Z,5.10
2018-09-21T07:35:36.706Z,5.45
2018-09-21T07:38:05.755Z,5.37
2018-09-21T07:40:34.958Z,5.50
2018-09-21T07:43:03.881Z,5.50
2018-09-21T07:45:32.675Z,5.55
2018-09-21T07:48:01.504Z,5.37
2018-09-21T07:50:30.551Z,5.40
2018-09-21T07:52:59.449Z,5.43
2018-09-21T07:55:28.542Z,5.25
2018-09-21T07:57:57.397Z,5.17
2018-09-21T08:00:26.263Z,5.10
2018-09-21T08:02:55.047Z,5.20
2018-09-21T08:05:28.803Z,4.90
2018-09-21T08:08:00.260Z,5.27
2018-09-21T08:10:29.228Z,5.00
2018-09-21T08:12:58.190Z,5.50
2018-09-21T08:15:27.114Z,5.60
2018-09-21T08:17:56.152Z,5.30
2018-09-21T08:20:25.167Z,5.03
2018-09-21T08:22:53.682Z,5.30
2018-09-21T08:25:23.883Z,5.20
2018-09-21T08:27:52.758Z,5.10
2018-09-21T08:30:21.231Z,5.42
2018-09-21T08:32:50.477Z,5.17
2018-09-21T08:35:20.850Z,5.10
2018-09-21T08:37:49.539Z,4.95
2018-09-21T08:40:20.241Z,4.90
2018-09-21T08:42:48.924Z,5.20
2018-09-21T08:45:17.424Z,5.25
2018-09-21T08:47:46.377Z,5.33
2018-09-21T08:52:58.370Z,5.37
2018-09-21T08:58:08.868Z,5.03
2018-09-21T09:00:38.831Z,5.67
2018-09-21T09:03:08.151Z,4.83
2018-09-21T09:05:36.827Z,5.00
2018-09-21T09:08:05.535Z,4.80
2018-09-21T09:10:34.428Z,4.85
2018-09-21T09:13:02.981Z,4.83
2018-09-21T09:15:31.766Z,4.90
2018-09-21T09:18:15.148Z,5.10
2018-09-21T09:20:43.684Z,5.05
2018-09-21T09:23:12.814Z,5.08
2018-09-21T09:25:42.098Z,4.80
2018-09-21T09:28:10.695Z,5.20
2018-09-21T09:30:39.831Z,4.95
2018-09-21T09:33:09.108Z,4.95
2018-09-21T09:38:38.383Z,4.92
2018-09-21T09:41:07.775Z,5.25
2018-09-21T09:43:36.979Z,5.50
2018-09-21T09:46:05.764Z,4.97
2018-09-21T09:48:34.400Z,5.00
2018-09-21T09:51:03.691Z,5.00
2018-09-21T09:53:32.870Z,4.62
2018-09-21T09:56:01.534Z,5.30
2018-09-21T09:58:32.421Z,5.33
2018-09-21T10:01:01.123Z,4.70
2018-09-21T10:03:30.540Z,4.80
2018-09-21T10:05:58.966Z,5.15
2018-09-21T10:08:27.894Z,4.58
2018-09-21T10:10:56.951Z,5.12
2018-09-21T10:16:23.305Z,4.78
2018-09-21T10:18:52.462Z,4.87
2018-09-21T10:21:21.264Z,4.53
2018-09-21T10:23:51.531Z,4.50
2018-09-21T10:26:30.660Z,5.20
2018-09-21T10:29:00.070Z,4.53
2018-09-21T10:31:28.698Z,4.50
2018-09-21T10:33:57.391Z,5.12
2018-09-21T10:36:27.212Z,4.50
2018-09-21T10:38:56.672Z,4.35
2018-09-21T10:41:25.547Z,4.80
2018-09-21T10:43:54.734Z,5.00
2018-09-21T10:46:24.136Z,4.70
2018-09-21T10:48:54.220Z,4.83
2018-09-21T10:51:22.791Z,5.50
2018-09-21T10:53:51.586Z,5.55
2018-09-21T10:56:20.848Z,5.70
2018-09-21T10:58:49.496Z,4.93
2018-09-21T11:01:18.754Z,5.67
2018-09-21T11:03:47.661Z,5.20
2018-09-21T11:06:16.430Z,4.87
2018-09-21T11:08:45.188Z,5.22
2018-09-21T11:11:13.658Z,5.40
2018-09-21T11:13:42.450Z,5.67
2018-09-21T11:16:11.209Z,5.60
2018-09-21T11:18:40.001Z,5.00
2018-09-21T11:21:08.697Z,4.78
2018-09-21T11:23:37.656Z,4.80
2018-09-21T11:26:06.216Z,4.20
2018-09-21T11:28:35.290Z,4.97
2018-09-21T11:31:04.295Z,4.83
2018-09-21T11:33:33.848Z,4.80
2018-09-21T11:36:02.459Z,4.87
2018-09-21T11:38:31.350Z,5.08
2018-09-21T11:41:00.151Z,4.80
2018-09-21T11:43:29.680Z,4.80
2018-09-21T11:45:58.519Z,5.17
2018-09-21T11:48:27.200Z,5.67
2018-09-21T11:50:55.967Z,4.70
2018-09-21T11:53:25.289Z,5.03
2018-09-21T11:55:54.076Z,5.28
2018-09-21T11:58:22.848Z,4.85
2018-09-21T12:00:51.499Z,5.20
2018-09-21T12:03:20.371Z,5.00
2018-09-21T12:05:49.982Z,5.05
2018-09-21T12:08:18.822Z,5.42
2018-09-21T12:10:47.254Z,5.25
2018-09-21T12:13:15.972Z,4.92
2018-09-21T12:15:44.806Z,4.85
2018-09-21T12:18:13.900Z,5.45
2018-09-21T12:20:42.788Z,4.87
2018-09-21T12:23:11.645Z,5.50
2018-09-21T12:25:40.834Z,5.15
2018-09-21T12:28:09.591Z,4.90
2018-09-21T12:30:38.760Z,5.08
2018-09-21T12:33:08.644Z,5.03
2018-09-21T12:35:37.991Z,5.17
2018-09-21T12:38:06.795Z,5.08
2018-09-21T12:40:36.051Z,4.83
2018-09-21T12:43:09.943Z,5.45
2018-09-21T12:45:39.627Z,4.85
2018-09-21T12:48:08.534Z,5.33
2018-09-21T12:50:39.161Z,5.37
2018-09-21T12:53:08.013Z,5.40
2018-09-21T12:55:38.920Z,5.50
2018-09-21T12:58:08.028Z,5.40
2018-09-21T13:00:41.698Z,5.08
2018-09-21T13:03:10.535Z,5.40
2018-09-21T13:05:43.599Z,4.97
2018-09-21T13:08:12.693Z,5.08
2018-09-21T13:10:41.276Z,5.47
2018-09-21T13:13:10.146Z,4.90
2018-09-21T13:15:38.998Z,5.58
2018-09-21T13:18:08.025Z,4.85
2018-09-21T13:20:36.878Z,4.75
2018-09-21T13:23:05.762Z,4.90
2018-09-21T13:25:34.607Z,5.05
2018-09-21T13:28:03.553Z,4.78
2018-09-21T13:30:32.436Z,4.85
2018-09-21T13:33:01.383Z,4.78
2018-09-21T13:35:29.934Z,4.72
2018-09-21T13:37:58.868Z,4.62
2018-09-21T13:40:27.718Z,4.42
2018-09-21T13:42:56.436Z,4.67
2018-09-21T13:45:25.540Z,4.25
2018-09-21T13:47:54.995Z,4.50
2018-09-21T13:50:23.962Z,4.47
2018-09-21T13:52:53.008Z,4.50
2018-09-21T13:55:21.571Z,4.50
2018-09-21T13:57:51.382Z,3.95
2018-09-21T14:00:20.464Z,4.30
2018-09-21T14:02:48.993Z,3.85
2018-09-21T14:05:17.903Z,3.27
2018-09-21T14:07:46.708Z,3.22
2018-09-21T14:10:15.940Z,3.40
2018-09-21T14:12:44.836Z,3.77
2018-09-21T14:15:28.248Z,3.50
2018-09-21T14:17:58.371Z,3.20
2018-09-21T14:20:28.351Z,3.45
2018-09-21T14:22:57.034Z,4.00
2018-09-21T14:25:26.666Z,3.52
2018-09-21T14:27:55.328Z,3.72
2018-09-21T14:30:24.422Z,3.45
2018-09-21T14:32:55.370Z,3.60
2018-09-21T14:35:24.734Z,3.77
2018-09-21T14:37:53.538Z,3.52
2018-09-21T14:40:22.770Z,3.30
2018-09-21T14:42:52.064Z,3.30
2018-09-21T14:45:21.055Z,3.72
2018-09-21T14:47:49.545Z,3.70
2018-09-21T14:50:18.404Z,3.20
2018-09-21T14:52:46.864Z,3.42
2018-09-21T14:55:17.382Z,3.60
2018-09-21T14:57:46.308Z,3.55
2018-09-21T15:00:14.891Z,3.40
2018-09-21T15:02:43.740Z,4.45
2018-09-21T15:05:12.792Z,4.55
2018-09-21T15:07:41.828Z,4.35
2018-09-21T15:10:12.498Z,4.90
2018-09-21T15:12:42.602Z,3.90
2018-09-21T15:15:11.843Z,3.53
2018-09-21T15:17:41.043Z,3.52
2018-09-21T15:20:11.910Z,3.52
2018-09-21T15:22:41.126Z,3.50
2018-09-21T15:25:09.392Z,3.20
2018-09-21T15:27:38.140Z,3.50
2018-09-21T15:30:07.462Z,3.05
2018-09-21T15:32:36.486Z,3.33
2018-09-21T15:35:05.112Z,2.90
2018-09-21T15:37:34.092Z,3.02
2018-09-21T15:40:03.627Z,2.90
2018-09-21T15:42:32.300Z,2.30
2018-09-21T15:45:02.376Z,2.87
2018-09-21T15:47:31.495Z,2.42
2018-09-21T15:50:00.056Z,2.35
2018-09-21T15:52:28.576Z,2.42
2018-09-21T15:54:57.604Z,2.10
2018-09-21T15:57:26.618Z,2.77
2018-09-21T15:59:55.431Z,3.40
2018-09-21T16:02:23.874Z,3.10
2018-09-21T16:04:52.628Z,2.70
2018-09-21T16:07:21.416Z,2.37
2018-09-21T16:09:50.233Z,2.30
2018-09-21T16:12:19.310Z,2.60
2018-09-21T16:14:48.462Z,2.05
2018-09-21T16:17:17.177Z,2.77
2018-09-21T16:19:46.209Z,1.90
2018-09-21T16:29:39.192Z,1.52
2018-09-21T16:32:07.757Z,2.10
2018-09-21T16:34:36.765Z,2.00
2018-09-21T16:37:05.894Z,2.10
2018-09-21T16:39:35.350Z,2.20
2018-09-21T16:42:04.527Z,2.83
2018-09-21T16:44:33.177Z,2.73
2018-09-21T16:47:01.926Z,2.30
2018-09-21T16:49:30.690Z,2.00
2018-09-21T16:51:59.752Z,2.70
2018-09-21T16:54:28.602Z,2.00
2018-09-21T16:56:57.371Z,2.50
2018-09-21T16:59:26.726Z,2.87
2018-09-21T17:01:55.748Z,2.15
2018-09-21T17:04:24.373Z,2.30
2018-09-21T17:06:52.817Z,2.15
2018-09-21T17:09:21.730Z,2.40
2018-09-21T17:11:50.428Z,2.65
2018-09-21T17:14:19.051Z,2.40
2018-09-21T17:16:48.080Z,2.50
2018-09-21T17:19:16.929Z,2.70
2018-09-21T17:21:45.872Z,2.30
2018-09-21T17:24:14.773Z,2.40
2018-09-21T17:26:43.521Z,2.58
2018-09-21T17:29:12.846Z,2.50
2018-09-21T17:31:42.060Z,2.40
2018-09-21T17:34:10.644Z,2.25
2018-09-21T17:36:39.280Z,2.27
2018-09-21T17:39:10.155Z,2.47
2018-09-21T17:41:38.798Z,2.50
2018-09-21T17:44:07.381Z,2.73
2018-09-21T17:46:35.988Z,2.60
2018-09-21T17:49:04.687Z,2.33
2018-09-21T17:51:34.005Z,2.43
2018-09-21T17:54:02.975Z,2.70
2018-09-21T17:56:31.553Z,2.90
2018-09-21T17:59:00.079Z,3.08
2018-09-21T18:01:28.699Z,2.70
2018-09-21T18:04:04.675Z,2.70
2018-09-21T18:06:33.433Z,3.08
2018-09-21T18:09:02.393Z,2.90
2018-09-21T18:11:31.353Z,3.42
2018-09-21T18:14:00.239Z,2.60
2018-09-21T18:16:29.099Z,3.08
2018-09-21T18:18:57.924Z,2.80
2018-09-21T18:21:27.034Z,2.85
2018-09-21T18:23:55.866Z,4.47
2018-09-21T18:26:24.734Z,3.40
2018-09-21T18:28:53.774Z,2.67
2018-09-21T18:31:23.042Z,2.83
2018-09-21T18:33:52.104Z,2.42
2018-09-21T18:36:21.182Z,2.72
2018-09-21T18:38:49.926Z,2.55
2018-09-21T18:41:18.830Z,2.60
2018-09-21T18:43:47.672Z,2.42
2018-09-21T18:46:16.222Z,2.65
2018-09-21T18:48:44.968Z,2.70
2018-09-21T18:51:13.615Z,2.70
2018-09-21T18:53:42.393Z,2.87
2018-09-21T18:56:12.011Z,2.50
2018-09-21T18:58:41.518Z,2.30
2018-09-21T19:01:10.103Z,2.92
2018-09-21T19:03:39.065Z,2.70
2018-09-21T19:06:07.885Z,2.70
2018-09-21T19:08:36.860Z,2.20
2018-09-21T19:11:05.453Z,2.15
2018-09-21T19:13:34.036Z,2.52
2018-09-21T19:16:02.724Z,2.22
2018-09-21T19:18:31.294Z,2.62
2018-09-21T19:21:00.437Z,2.70
2018-09-21T19:23:29.143Z,3.05
2018-09-21T19:25:57.835Z,2.42
2018-09-21T19:28:26.823Z,2.83
2018-09-21T19:30:55.524Z,2.52
2018-09-21T19:33:24.656Z,2.40
2018-09-21T19:35:53.615Z,2.87
2018-09-21T19:38:22.721Z,2.77
2018-09-21T19:40:51.426Z,2.50
2018-09-21T19:43:20.101Z,2.70
2018-09-21T19:45:48.890Z,2.67
2018-09-21T19:48:18.142Z,2.72
2018-09-21T19:50:46.878Z,3.10
2018-09-21T19:53:15.582Z,3.22
2018-09-21T19:55:44.306Z,3.10
2018-09-21T19:58:12.953Z,3.25
2018-09-21T20:00:41.734Z,3.25
2018-09-21T20:03:10.508Z,2.83
2018-09-21T20:05:39.219Z,3.12
2018-09-21T20:08:07.892Z,3.58
2018-09-21T20:10:36.487Z,3.00
2018-09-21T20:13:05.261Z,3.10
2018-09-21T20:15:33.895Z,3.42
2018-09-21T20:18:02.612Z,3.33
2018-09-21T20:20:31.397Z,2.67
2018-09-21T20:23:14.703Z,3.27
2018-09-21T20:25:43.309Z,3.20
2018-09-21T20:28:12.001Z,3.20
2018-09-21T20:31:49.486Z,3.87
2018-09-21T20:34:18.283Z,3.12
2018-09-21T20:36:46.969Z,3.25
2018-09-21T20:39:15.534Z,3.20
2018-09-21T20:41:44.204Z,3.08
2018-09-21T20:44:17.999Z,3.02
2018-09-21T20:46:47.720Z,3.17
2018-09-21T20:49:16.647Z,3.22
2018-09-21T20:51:45.846Z,3.30
2018-09-21T20:54:15.176Z,3.33
2018-09-21T20:56:44.031Z,3.00
2018-09-21T20:59:13.322Z,3.50
2018-09-21T21:01:41.931Z,3.00
2018-09-21T21:04:10.737Z,3.47
2018-09-21T21:06:39.824Z,3.33
2018-09-21T21:09:09.658Z,3.12
2018-09-21T21:11:38.582Z,3.27
2018-09-21T21:14:07.371Z,3.47
2018-09-21T21:16:36.869Z,3.13
2018-09-21T21:19:06.211Z,3.25
2018-09-21T21:21:35.329Z,3.20
2018-09-21T21:24:04.325Z,2.90
2018-09-21T21:26:32.968Z,3.17
2018-09-21T21:29:01.557Z,3.15
2018-09-21T21:31:30.006Z,3.17
2018-09-21T21:33:58.591Z,3.30
2018-09-21T21:36:27.341Z,3.00
2018-09-21T21:38:55.920Z,3.30
2018-09-21T21:41:24.631Z,3.05
2018-09-21T21:43:53.272Z,3.00
2018-09-21T21:46:22.965Z,3.00
2018-09-21T21:48:51.588Z,3.00
2018-09-21T21:51:20.136Z,3.10
2018-09-21T21:53:48.597Z,3.27
2018-09-21T21:56:17.100Z,3.08
2018-09-21T21:58:45.600Z,2.83
2018-09-21T22:01:19.366Z,2.87
2018-09-21T22:03:48.039Z,2.92
2018-09-21T22:06:16.529Z,2.75
2018-09-21T22:08:45.219Z,2.80
2018-09-21T22:11:18.792Z,3.10
2018-09-21T22:13:52.554Z,2.60
2018-09-21T22:16:21.078Z,2.65
2018-09-21T22:18:49.830Z,2.40
2018-09-21T22:21:18.267Z,2.60
2018-09-21T22:23:47.016Z,2.60
2018-09-21T22:26:15.574Z,2.60
2018-09-21T22:28:44.055Z,2.60
2018-09-21T22:31:13.218Z,2.47
2018-09-21T22:33:43.370Z,2.47
2018-09-21T22:36:12.207Z,2.40
2018-09-21T22:38:41.568Z,2.30
2018-09-21T22:41:10.581Z,2.50
2018-09-21T22:43:39.324Z,2.33
2018-09-21T22:46:08.055Z,2.30
2018-09-21T22:48:36.787Z,2.15
2018-09-21T22:51:05.912Z,2.20
2018-09-21T22:53:34.468Z,2.00
2018-09-21T22:56:03.008Z,2.22
2018-09-21T22:58:31.632Z,2.10
2018-09-21T23:01:00.256Z,2.40
2018-09-21T23:03:30.370Z,2.30
2018-09-21T23:06:00.944Z,2.20
2018-09-21T23:08:30.991Z,2.33
2018-09-21T23:10:59.588Z,1.98
2018-09-21T23:13:28.177Z,2.30
2018-09-21T23:15:56.782Z,2.00
2018-09-21T23:18:25.260Z,1.80
2018-09-21T23:20:53.830Z,1.92
2018-09-21T23:23:22.322Z,2.03
2018-09-21T23:25:51.276Z,1.90
2018-09-21T23:28:20.232Z,1.70
2018-09-21T23:30:48.756Z,2.05
2018-09-21T23:33:17.242Z,1.80
2018-09-21T23:35:45.872Z,1.80
2018-09-21T23:38:14.466Z,1.90
2018-09-21T23:40:42.988Z,1.93
2018-09-21T23:43:11.490Z,2.03
2018-09-21T23:45:40.066Z,1.70
2018-09-21T23:48:08.970Z,1.77
2018-09-21T23:50:37.950Z,1.97
2018-09-21T23:53:06.500Z,2.10
2018-09-21T23:55:35.359Z,2.10
2018-09-21T23:58:03.951Z,1.97
